createdAt,value
2022-11-25T00:04:29.233Z,98003.00
2022-11-25T00:09:38.583Z,98002.00
2022-11-25T00:14:41.262Z,98000.00
2022-11-25T00:19:44.042Z,97993.00
2022-11-25T00:24:46.822Z,97990.00
2022-11-25T00:29:49.565Z,97982.00
2022-11-25T00:34:52.415Z,97986.00
2022-11-25T00:39:55.164Z,97988.00
2022-11-25T00:44:58.043Z,97980.00
2022-11-25T00:50:00.798Z,97974.00
2022-11-25T00:55:04.446Z,97977.00
2022-11-25T01:00:09.751Z,97977.00
2022-11-25T01:05:27.906Z,97986.00
2022-11-25T01:10:32.485Z,97984.00
2022-11-25T01:15:37.753Z,97986.00
2022-11-25T01:20:40.494Z,97994.00
2022-11-25T01:25:43.233Z,97994.00
2022-11-25T01:30:45.938Z,97987.00
2022-11-25T01:36:06.701Z,97983.00
2022-11-25T01:41:34.536Z,97984.00
2022-11-25T01:47:07.466Z,97980.00
2022-11-25T01:52:43.985Z,97980.00
2022-11-25T01:58:19.198Z,97984.00
2022-11-25T02:04:08.635Z,97990.00
2022-11-25T02:09:38.864Z,97988.00
2022-11-25T02:15:03.330Z,97990.00
2022-11-25T02:20:22.970Z,97990.00
2022-11-25T02:25:39.792Z,97986.00
2022-11-25T02:30:47.769Z,97992.00
2022-11-25T02:36:22.870Z,97983.00
2022-11-25T02:41:28.628Z,97999.00
2022-11-25T02:46:59.532Z,97983.00
2022-11-25T02:52:17.217Z,97988.00
2022-11-25T02:57:39.031Z,97989.00
2022-11-25T03:03:14.164Z,97996.00
2022-11-25T03:08:18.297Z,97990.00
2022-11-25T03:13:48.661Z,97989.00
2022-11-25T03:19:08.831Z,97997.00
2022-11-25T03:24:18.399Z,97989.00
2022-11-25T03:29:24.838Z,97989.00
2022-11-25T03:34:30.605Z,97997.00
2022-11-25T03:39:34.344Z,97987.00
2022-11-25T03:44:37.478Z,97990.00
2022-11-25T03:49:40.782Z,97996.00
2022-11-25T03:54:44.328Z,97998.00
2022-11-25T03:59:53.297Z,97989.00
2022-11-25T04:05:10.007Z,98001.00
2022-11-25T04:10:16.291Z,98005.00
2022-11-25T04:15:20.194Z,98002.00
2022-11-25T04:20:28.170Z,98003.00
2022-11-25T04:25:43.120Z,97998.00
2022-11-25T04:36:29.417Z,98000.00
2022-11-25T04:41:49.918Z,98011.00
2022-11-25T04:47:25.607Z,98004.00
2022-11-25T04:52:48.655Z,98002.00
2022-11-25T04:58:03.463Z,98004.00
2022-11-25T05:03:11.117Z,97999.00
2022-11-25T05:08:33.096Z,98014.00
2022-11-25T05:13:58.359Z,98009.00
2022-11-25T05:19:27.055Z,98006.00
2022-11-25T05:24:30.235Z,98005.00
2022-11-25T05:29:33.722Z,97992.00
2022-11-25T05:34:36.800Z,98004.00
2022-11-25T05:39:40.235Z,97994.00
2022-11-25T05:45:09.628Z,98005.00
2022-11-25T05:50:12.537Z,98008.00
2022-11-25T05:55:18.285Z,98009.00
2022-11-25T06:00:26.784Z,98009.00
2022-11-25T06:05:45.442Z,98006.00
2022-11-25T06:10:59.743Z,98010.00
2022-11-25T06:16:37.213Z,98021.00
2022-11-25T06:22:14.271Z,98007.00
2022-11-25T06:33:04.215Z,98023.00
2022-11-25T06:38:23.889Z,98028.00
2022-11-25T06:44:03.049Z,98025.00
2022-11-25T06:49:12.546Z,98032.00
2022-11-25T06:54:23.953Z,98037.00
2022-11-25T06:59:29.739Z,98047.00
2022-11-25T07:04:57.756Z,98047.00
2022-11-25T07:10:02.283Z,98051.00
2022-11-25T07:15:07.505Z,98058.00
2022-11-25T07:20:11.906Z,98057.00
2022-11-25T07:25:15.178Z,98068.00
2022-11-25T07:31:21.056Z,98062.00
2022-11-25T07:35:41.034Z,98067.00
2022-11-25T07:40:43.894Z,98064.00
2022-11-25T07:45:46.666Z,98070.00
2022-11-25T07:51:00.448Z,98060.00
2022-11-25T07:56:39.803Z,98064.00
2022-11-25T08:01:57.500Z,98064.00
2022-11-25T08:07:32.030Z,98074.00
2022-11-25T08:12:39.049Z,98084.00
2022-11-25T08:17:47.870Z,98078.00
2022-11-25T08:23:02.138Z,98075.00
2022-11-25T08:28:15.328Z,98086.00
2022-11-25T08:34:17.721Z,98084.00
2022-11-25T08:40:13.439Z,98082.00
2022-11-25T08:45:42.308Z,98084.00
2022-11-25T08:51:28.672Z,98080.00
2022-11-25T08:56:49.369Z,98074.00
2022-11-25T09:02:15.569Z,98083.00
2022-11-25T09:07:30.412Z,98080.00
2022-11-25T09:12:59.606Z,98076.00
2022-11-25T09:18:15.013Z,98076.00
2022-11-25T09:23:30.401Z,98092.00
2022-11-25T09:28:50.257Z,98092.00
2022-11-25T09:34:03.299Z,98091.00
2022-11-25T09:39:12.800Z,98086.00
2022-11-25T09:44:41.952Z,98090.00
2022-11-25T09:50:08.825Z,98086.00
2022-11-25T09:55:25.274Z,98079.00
2022-11-25T10:00:54.848Z,98080.00
2022-11-25T10:06:55.480Z,98073.00
2022-11-25T10:12:48.770Z,98065.00
2022-11-25T10:18:13.810Z,98072.00
2022-11-25T10:23:36.031Z,98072.00
2022-11-25T10:29:00.930Z,98068.00
2022-11-25T10:34:28.469Z,98071.00
2022-11-25T10:39:34.711Z,98063.00
2022-11-25T10:44:40.183Z,98063.00
2022-11-25T10:49:43.212Z,98081.00
2022-11-25T10:54:58.499Z,98074.00
2022-11-25T11:00:04.340Z,98073.00
2022-11-25T11:05:36.231Z,98074.00
2022-11-25T11:10:46.061Z,98072.00
2022-11-25T11:16:07.684Z,98070.00
2022-11-25T11:22:02.733Z,98077.00
2022-11-25T11:27:37.986Z,98063.00
2022-11-25T11:33:35.261Z,98057.00
2022-11-25T11:39:19.894Z,98066.00
2022-11-25T11:44:30.140Z,98057.00
2022-11-25T11:50:23.417Z,98062.00
2022-11-25T12:02:24.418Z,98074.00
2022-11-25T12:07:47.826Z,98059.00
2022-11-25T12:13:12.319Z,98062.00
2022-11-25T12:18:36.224Z,98067.00
2022-11-25T12:24:05.639Z,98058.00
2022-11-25T12:29:18.554Z,98049.00
2022-11-25T12:34:41.156Z,98051.00
2022-11-25T12:39:48.724Z,98053.00
2022-11-25T12:45:07.256Z,98052.00
2022-11-25T12:50:31.051Z,98062.00
2022-11-25T12:55:35.138Z,98069.00
2022-11-25T13:01:03.868Z,98066.00
2022-11-25T13:06:50.971Z,98069.00
2022-11-25T13:12:14.848Z,98072.00
2022-11-25T13:17:47.502Z,98078.00
2022-11-25T13:23:24.451Z,98083.00
2022-11-25T13:28:46.325Z,98077.00
2022-11-25T13:34:23.652Z,98093.00
2022-11-25T13:39:34.789Z,98087.00
2022-11-25T13:44:57.353Z,98093.00
2022-11-25T13:50:11.870Z,98100.00
2022-11-25T13:55:18.070Z,98096.00
2022-11-25T14:00:20.818Z,98114.00
2022-11-25T14:06:12.691Z,98113.00
2022-11-25T14:11:48.027Z,98113.00
2022-11-25T14:17:12.854Z,98118.00
2022-11-25T14:22:44.566Z,98118.00
2022-11-25T14:28:31.082Z,98128.00
2022-11-25T14:34:03.462Z,98141.00
2022-11-25T14:39:22.006Z,98148.00
2022-11-25T14:44:42.053Z,98156.00
2022-11-25T14:50:11.867Z,98164.00
2022-11-25T14:55:31.713Z,98170.00
2022-11-25T15:00:34.532Z,98171.00
2022-11-25T15:06:00.685Z,98170.00
2022-11-25T15:11:29.561Z,98186.00
2022-11-25T15:17:02.427Z,98185.00
2022-11-25T15:22:31.877Z,98197.00
2022-11-25T15:28:01.724Z,98206.00
2022-11-25T15:33:14.897Z,98220.00
2022-11-25T15:38:54.711Z,98215.00
2022-11-25T15:44:10.917Z,98231.00
2022-11-25T15:49:26.034Z,98228.00
2022-11-25T15:54:40.437Z,98230.00
2022-11-25T15:59:50.849Z,98218.00
2022-11-25T16:05:48.615Z,98230.00
2022-11-25T16:11:31.395Z,98233.00
2022-11-25T16:17:09.727Z,98241.00
2022-11-25T16:22:30.166Z,98237.00
2022-11-25T16:28:05.880Z,98245.00
2022-11-25T16:33:25.289Z,98262.00
2022-11-25T16:38:41.624Z,98262.00
2022-11-25T16:44:09.133Z,98266.00
2022-11-25T16:49:24.781Z,98265.00
2022-11-25T16:54:28.193Z,98282.00
2022-11-25T16:59:36.726Z,98279.00
2022-11-25T17:04:53.203Z,98270.00
2022-11-25T17:15:35.463Z,98284.00
2022-11-25T17:20:38.319Z,98298.00
2022-11-25T17:25:42.909Z,98298.00
2022-11-25T17:30:56.039Z,98297.00
2022-11-25T17:36:13.012Z,98302.00
2022-11-25T17:41:47.503Z,98306.00
2022-11-25T17:47:21.265Z,98315.00
2022-11-25T17:52:46.961Z,98317.00
2022-11-25T17:58:02.294Z,98320.00
2022-11-25T18:03:29.496Z,98335.00
2022-11-25T18:08:47.180Z,98338.00
2022-11-25T18:13:58.276Z,98347.00
2022-11-25T18:19:08.494Z,98357.00
2022-11-25T18:24:18.493Z,98352.00
2022-11-25T18:29:26.911Z,98359.00
2022-11-25T18:34:29.753Z,98364.00
2022-11-25T18:39:32.576Z,98373.00
2022-11-25T18:44:42.203Z,98368.00
2022-11-25T18:49:45.259Z,98386.00
2022-11-25T18:54:49.544Z,98382.00
2022-11-25T19:00:10.645Z,98400.00
2022-11-25T19:05:36.555Z,98391.00
2022-11-25T19:10:43.361Z,98402.00
2022-11-25T19:15:56.133Z,98409.00
2022-11-25T19:21:27.109Z,98417.00
2022-11-25T19:27:04.003Z,98431.00
2022-11-25T19:32:28.556Z,98436.00
2022-11-25T19:37:57.056Z,98442.00
2022-11-25T19:43:00.183Z,98439.00
2022-11-25T19:48:14.545Z,98445.00
2022-11-25T19:53:34.729Z,98470.00
2022-11-25T19:58:57.858Z,98460.00
2022-11-25T20:04:16.549Z,98467.00
2022-11-25T20:09:45.093Z,98479.00
2022-11-25T20:14:50.472Z,98490.00
2022-11-25T20:19:58.413Z,98489.00
2022-11-25T20:25:03.150Z,98505.00
2022-11-25T20:30:21.142Z,98509.00
2022-11-25T20:35:25.876Z,98516.00
2022-11-25T20:40:40.358Z,98530.00
2022-11-25T20:45:43.073Z,98538.00
2022-11-25T20:50:46.371Z,98531.00
2022-11-25T20:55:58.269Z,98549.00
2022-11-25T21:01:01.995Z,98551.00
2022-11-25T21:06:27.834Z,98564.00
2022-11-25T21:12:01.591Z,98558.00
2022-11-25T21:17:20.531Z,98568.00
2022-11-25T21:22:41.438Z,98579.00
2022-11-25T21:28:02.567Z,98577.00
2022-11-25T21:33:23.545Z,98591.00
2022-11-25T21:38:29.803Z,98592.00
2022-11-25T21:43:55.660Z,98594.00
2022-11-25T21:49:02.625Z,98610.00
2022-11-25T21:54:12.508Z,98597.00
2022-11-25T21:59:25.104Z,98612.00
2022-11-25T22:04:49.286Z,98613.00
2022-11-25T22:09:52.792Z,98620.00
2022-11-25T22:14:57.669Z,98617.00
2022-11-25T22:20:00.737Z,98619.00
2022-11-25T22:25:03.920Z,98642.00
2022-11-25T22:30:07.452Z,98637.00
2022-11-25T22:35:19.369Z,98654.00
2022-11-25T22:40:24.598Z,98651.00
2022-11-25T22:45:35.013Z,98665.00
2022-11-25T22:50:37.803Z,98669.00
2022-11-25T22:55:40.740Z,98662.00
2022-11-25T23:00:46.571Z,98666.00
2022-11-25T23:06:05.629Z,98673.00
2022-11-25T23:11:37.045Z,98678.00
2022-11-25T23:17:02.864Z,98688.00
2022-11-25T23:22:29.227Z,98692.00
2022-11-25T23:27:52.382Z,98690.00
2022-11-25T23:33:07.184Z,98701.00
2022-11-25T23:38:28.389Z,98701.00
2022-11-25T23:43:35.102Z,98710.00
2022-11-25T23:48:41.204Z,98714.00
2022-11-25T23:54:01.930Z,98714.00
2022-11-25T23:59:19.753Z,98717.00
